sensor_id;sensor_type;location;lat;lon;timestamp;temperature;humidity
34837;DHT22;21053;50.848;4.652;2023-07-29T00:01:34;20.40;99.90
34837;DHT22;21053;50.848;4.652;2023-07-29T00:04:02;20.30;99.90
34837;DHT22;21053;50.848;4.652;2023-07-29T00:06:45;20.30;99.90
34837;DHT22;21053;50.848;4.652;2023-07-29T00:09:14;20.30;99.90
34837;DHT22;21053;50.848;4.652;2023-07-29T00:11:40;20.20;99.90
34837;DHT22;21053;50.848;4.652;2023-07-29T00:14:07;20.30;99.90
34837;DHT22;21053;50.848;4.652;2023-07-29T00:16:34;20.20;99.90
34837;DHT22;21053;50.848;4.652;2023-07-29T00:19:03;20.20;99.90
34837;DHT22;21053;50.848;4.652;2023-07-29T00:21:29;20.20;99.90
34837;DHT22;21053;50.848;4.652;2023-07-29T00:23:54;20.30;99.90
34837;DHT22;21053;50.848;4.652;2023-07-29T00:26:23;20.20;99.90
34837;DHT22;21053;50.848;4.652;2023-07-29T00:28:51;20.10;99.90
34837;DHT22;21053;50.848;4.652;2023-07-29T00:31:17;20.10;99.90
34837;DHT22;21053;50.848;4.652;2023-07-29T00:33:44;20.20;99.90
34837;DHT22;21053;50.848;4.652;2023-07-29T00:36:09;20.10;99.90
34837;DHT22;21053;50.848;4.652;2023-07-29T00:41:08;20.00;99.90
34837;DHT22;21053;50.848;4.652;2023-07-29T00:43:37;20.00;99.90
34837;DHT22;21053;50.848;4.652;2023-07-29T00:52:41;19.90;99.90
34837;DHT22;21053;50.848;4.652;2023-07-29T00:55:08;19.80;99.90
34837;DHT22;21053;50.848;4.652;2023-07-29T00:57:43;19.90;99.90
34837;DHT22;21053;50.848;4.652;2023-07-29T01:00:14;19.80;99.90
34837;DHT22;21053;50.848;4.652;2023-07-29T01:02:40;19.80;99.90
34837;DHT22;21053;50.848;4.652;2023-07-29T01:05:06;19.80;99.90
34837;DHT22;21053;50.848;4.652;2023-07-29T01:16:21;19.80;99.90
34837;DHT22;21053;50.848;4.652;2023-07-29T01:18:53;19.80;99.90
34837;DHT22;21053;50.848;4.652;2023-07-29T01:21:22;19.80;99.90
34837;DHT22;21053;50.848;4.652;2023-07-29T01:23:58;19.70;99.90
34837;DHT22;21053;50.848;4.652;2023-07-29T01:26:25;19.70;99.90
34837;DHT22;21053;50.848;4.652;2023-07-29T01:28:50;19.60;99.90
34837;DHT22;21053;50.848;4.652;2023-07-29T01:31:37;19.60;99.90
34837;DHT22;21053;50.848;4.652;2023-07-29T01:36:51;19.50;99.90
34837;DHT22;21053;50.848;4.652;2023-07-29T01:39:20;19.40;99.90
34837;DHT22;21053;50.848;4.652;2023-07-29T01:41:58;19.50;99.90
34837;DHT22;21053;50.848;4.652;2023-07-29T01:44:27;19.30;99.90
34837;DHT22;21053;50.848;4.652;2023-07-29T01:47:03;19.20;99.90
34837;DHT22;21053;50.848;4.652;2023-07-29T01:49:41;19.30;99.90
34837;DHT22;21053;50.848;4.652;2023-07-29T01:52:07;19.20;99.90
34837;DHT22;21053;50.848;4.652;2023-07-29T01:54:34;19.20;99.90
34837;DHT22;21053;50.848;4.652;2023-07-29T01:57:03;19.20;99.90
34837;DHT22;21053;50.848;4.652;2023-07-29T01:59:37;19.00;99.90
34837;DHT22;21053;50.848;4.652;2023-07-29T02:02:07;19.00;99.90
34837;DHT22;21053;50.848;4.652;2023-07-29T02:04:33;19.00;99.90
34837;DHT22;21053;50.848;4.652;2023-07-29T02:07:03;19.00;99.90
34837;DHT22;21053;50.848;4.652;2023-07-29T02:09:32;19.00;99.90
34837;DHT22;21053;50.848;4.652;2023-07-29T02:12:00;19.00;99.90
34837;DHT22;21053;50.848;4.652;2023-07-29T02:14:31;19.00;99.90
34837;DHT22;21053;50.848;4.652;2023-07-29T02:16:56;19.00;99.90
34837;DHT22;21053;50.848;4.652;2023-07-29T02:19:23;19.00;99.90
34837;DHT22;21053;50.848;4.652;2023-07-29T02:21:49;19.00;99.90
34837;DHT22;21053;50.848;4.652;2023-07-29T02:24:18;18.90;99.90
34837;DHT22;21053;50.848;4.652;2023-07-29T02:26:46;18.90;99.90
34837;DHT22;21053;50.848;4.652;2023-07-29T02:29:12;18.80;99.90
34837;DHT22;21053;50.848;4.652;2023-07-29T02:31:41;18.60;99.90
34837;DHT22;21053;50.848;4.652;2023-07-29T02:34:08;18.70;99.90
34837;DHT22;21053;50.848;4.652;2023-07-29T02:36:33;18.70;99.90
34837;DHT22;21053;50.848;4.652;2023-07-29T02:39:02;18.70;99.90
34837;DHT22;21053;50.848;4.652;2023-07-29T02:41:31;18.50;99.90
34837;DHT22;21053;50.848;4.652;2023-07-29T02:43:59;18.60;99.90
34837;DHT22;21053;50.848;4.652;2023-07-29T02:46:26;18.60;99.90
34837;DHT22;21053;50.848;4.652;2023-07-29T02:48:53;18.60;99.90
34837;DHT22;21053;50.848;4.652;2023-07-29T02:51:21;18.70;99.90
34837;DHT22;21053;50.848;4.652;2023-07-29T02:53:47;18.60;99.90
34837;DHT22;21053;50.848;4.652;2023-07-29T02:56:13;18.60;99.90
34837;DHT22;21053;50.848;4.652;2023-07-29T02:58:40;18.50;99.90
34837;DHT22;21053;50.848;4.652;2023-07-29T03:01:07;18.40;99.90
34837;DHT22;21053;50.848;4.652;2023-07-29T03:03:34;18.50;99.90
34837;DHT22;21053;50.848;4.652;2023-07-29T03:06:13;18.40;99.90
34837;DHT22;21053;50.848;4.652;2023-07-29T03:08:42;18.50;99.90
34837;DHT22;21053;50.848;4.652;2023-07-29T03:11:09;18.50;99.90
34837;DHT22;21053;50.848;4.652;2023-07-29T03:13:36;18.50;99.90
34837;DHT22;21053;50.848;4.652;2023-07-29T03:16:09;18.50;99.90
34837;DHT22;21053;50.848;4.652;2023-07-29T03:18:39;18.60;99.90
34837;DHT22;21053;50.848;4.652;2023-07-29T03:21:08;18.50;99.90
34837;DHT22;21053;50.848;4.652;2023-07-29T03:23:37;18.40;99.90
34837;DHT22;21053;50.848;4.652;2023-07-29T03:26:04;18.40;99.90
34837;DHT22;21053;50.848;4.652;2023-07-29T03:28:39;18.50;99.90
34837;DHT22;21053;50.848;4.652;2023-07-29T03:31:10;18.50;99.90
34837;DHT22;21053;50.848;4.652;2023-07-29T03:33:39;18.40;99.90
34837;DHT22;21053;50.848;4.652;2023-07-29T03:36:08;18.40;99.90
34837;DHT22;21053;50.848;4.652;2023-07-29T03:38:34;18.40;99.90
34837;DHT22;21053;50.848;4.652;2023-07-29T03:41:03;18.20;99.90
34837;DHT22;21053;50.848;4.652;2023-07-29T03:43:29;18.20;99.90
34837;DHT22;21053;50.848;4.652;2023-07-29T03:45:58;18.20;99.90
34837;DHT22;21053;50.848;4.652;2023-07-29T03:48:27;18.20;99.90
34837;DHT22;21053;50.848;4.652;2023-07-29T03:50:56;18.20;99.90
34837;DHT22;21053;50.848;4.652;2023-07-29T03:53:24;18.20;99.90
34837;DHT22;21053;50.848;4.652;2023-07-29T03:55:53;18.30;99.90
34837;DHT22;21053;50.848;4.652;2023-07-29T03:58:22;18.30;99.90
34837;DHT22;21053;50.848;4.652;2023-07-29T04:00:50;18.40;99.90
34837;DHT22;21053;50.848;4.652;2023-07-29T04:03:19;18.40;99.90
34837;DHT22;21053;50.848;4.652;2023-07-29T04:05:44;18.40;99.90
34837;DHT22;21053;50.848;4.652;2023-07-29T04:08:12;18.40;99.90
34837;DHT22;21053;50.848;4.652;2023-07-29T04:10:41;18.40;99.90
34837;DHT22;21053;50.848;4.652;2023-07-29T04:13:07;18.40;99.90
34837;DHT22;21053;50.848;4.652;2023-07-29T04:15:34;18.40;99.90
34837;DHT22;21053;50.848;4.652;2023-07-29T04:18:00;18.40;99.90
34837;DHT22;21053;50.848;4.652;2023-07-29T04:20:29;18.40;99.90
34837;DHT22;21053;50.848;4.652;2023-07-29T04:22:56;18.40;99.90
34837;DHT22;21053;50.848;4.652;2023-07-29T04:25:22;18.50;99.90
34837;DHT22;21053;50.848;4.652;2023-07-29T04:27:51;18.50;99.90
34837;DHT22;21053;50.848;4.652;2023-07-29T04:30:19;18.60;99.90
34837;DHT22;21053;50.848;4.652;2023-07-29T04:32:46;18.60;99.90
34837;DHT22;21053;50.848;4.652;2023-07-29T04:35:16;18.60;99.90
34837;DHT22;21053;50.848;4.652;2023-07-29T04:37:42;18.50;99.90
34837;DHT22;21053;50.848;4.652;2023-07-29T04:40:09;18.60;99.90
34837;DHT22;21053;50.848;4.652;2023-07-29T04:42:36;18.60;99.90
34837;DHT22;21053;50.848;4.652;2023-07-29T04:45:05;18.60;99.90
34837;DHT22;21053;50.848;4.652;2023-07-29T04:47:34;18.60;99.90
34837;DHT22;21053;50.848;4.652;2023-07-29T04:50:00;18.70;99.90
34837;DHT22;21053;50.848;4.652;2023-07-29T04:52:44;18.60;99.90
34837;DHT22;21053;50.848;4.652;2023-07-29T04:55:13;18.70;99.90
34837;DHT22;21053;50.848;4.652;2023-07-29T04:57:40;18.70;99.90
34837;DHT22;21053;50.848;4.652;2023-07-29T05:00:06;18.70;99.90
34837;DHT22;21053;50.848;4.652;2023-07-29T05:02:35;18.70;99.90
34837;DHT22;21053;50.848;4.652;2023-07-29T05:05:04;18.70;99.90
34837;DHT22;21053;50.848;4.652;2023-07-29T05:07:33;18.80;99.90
34837;DHT22;21053;50.848;4.652;2023-07-29T05:10:01;18.70;99.90
34837;DHT22;21053;50.848;4.652;2023-07-29T05:12:28;18.70;99.90
34837;DHT22;21053;50.848;4.652;2023-07-29T05:14:58;18.70;99.90
34837;DHT22;21053;50.848;4.652;2023-07-29T05:17:23;18.70;99.90
34837;DHT22;21053;50.848;4.652;2023-07-29T05:19:50;18.70;99.90
34837;DHT22;21053;50.848;4.652;2023-07-29T05:22:17;18.70;99.90
34837;DHT22;21053;50.848;4.652;2023-07-29T05:24:43;18.70;99.90
34837;DHT22;21053;50.848;4.652;2023-07-29T05:27:09;18.70;99.90
34837;DHT22;21053;50.848;4.652;2023-07-29T05:29:37;18.70;99.90
34837;DHT22;21053;50.848;4.652;2023-07-29T05:32:04;18.70;99.90
34837;DHT22;21053;50.848;4.652;2023-07-29T05:34:32;18.70;99.90
34837;DHT22;21053;50.848;4.652;2023-07-29T05:36:57;18.80;99.90
34837;DHT22;21053;50.848;4.652;2023-07-29T05:39:37;18.80;99.90
34837;DHT22;21053;50.848;4.652;2023-07-29T05:42:03;18.90;99.90
34837;DHT22;21053;50.848;4.652;2023-07-29T05:44:30;18.90;99.90
34837;DHT22;21053;50.848;4.652;2023-07-29T05:46:59;18.90;99.90
34837;DHT22;21053;50.848;4.652;2023-07-29T05:49:28;18.90;99.90
34837;DHT22;21053;50.848;4.652;2023-07-29T05:51:56;19.00;99.90
34837;DHT22;21053;50.848;4.652;2023-07-29T05:54:23;19.10;99.90
34837;DHT22;21053;50.848;4.652;2023-07-29T05:56:52;19.20;99.90
34837;DHT22;21053;50.848;4.652;2023-07-29T05:59:19;19.20;99.90
34837;DHT22;21053;50.848;4.652;2023-07-29T06:01:47;19.30;99.90
34837;DHT22;21053;50.848;4.652;2023-07-29T06:04:16;19.30;99.90
34837;DHT22;21053;50.848;4.652;2023-07-29T06:06:42;19.40;99.90
34837;DHT22;21053;50.848;4.652;2023-07-29T06:09:11;19.40;99.90
34837;DHT22;21053;50.848;4.652;2023-07-29T06:11:39;19.40;99.90
34837;DHT22;21053;50.848;4.652;2023-07-29T06:14:08;19.50;99.90
34837;DHT22;21053;50.848;4.652;2023-07-29T06:16:35;19.50;99.90
34837;DHT22;21053;50.848;4.652;2023-07-29T06:19:04;19.50;99.90
34837;DHT22;21053;50.848;4.652;2023-07-29T06:21:31;19.50;99.90
34837;DHT22;21053;50.848;4.652;2023-07-29T06:24:00;19.50;99.90
34837;DHT22;21053;50.848;4.652;2023-07-29T06:26:28;19.50;99.90
34837;DHT22;21053;50.848;4.652;2023-07-29T06:28:55;19.60;99.90
34837;DHT22;21053;50.848;4.652;2023-07-29T06:31:21;19.70;99.90
34837;DHT22;21053;50.848;4.652;2023-07-29T06:33:48;19.80;99.90
34837;DHT22;21053;50.848;4.652;2023-07-29T06:36:17;19.90;99.90
34837;DHT22;21053;50.848;4.652;2023-07-29T06:38:49;19.90;99.90
34837;DHT22;21053;50.848;4.652;2023-07-29T06:41:18;19.90;99.90
34837;DHT22;21053;50.848;4.652;2023-07-29T06:43:46;20.00;99.90
34837;DHT22;21053;50.848;4.652;2023-07-29T06:46:13;20.20;99.90
34837;DHT22;21053;50.848;4.652;2023-07-29T06:48:40;20.30;99.90
34837;DHT22;21053;50.848;4.652;2023-07-29T06:51:08;20.40;99.90
34837;DHT22;21053;50.848;4.652;2023-07-29T06:53:35;20.50;99.90
34837;DHT22;21053;50.848;4.652;2023-07-29T06:56:04;20.60;99.90
34837;DHT22;21053;50.848;4.652;2023-07-29T06:58:34;20.80;99.90
34837;DHT22;21053;50.848;4.652;2023-07-29T07:01:03;21.00;99.90
34837;DHT22;21053;50.848;4.652;2023-07-29T07:03:28;21.00;99.90
34837;DHT22;21053;50.848;4.652;2023-07-29T07:05:55;20.80;99.90
34837;DHT22;21053;50.848;4.652;2023-07-29T07:08:26;20.90;99.90
34837;DHT22;21053;50.848;4.652;2023-07-29T07:10:53;20.90;99.90
34837;DHT22;21053;50.848;4.652;2023-07-29T07:13:22;21.00;99.90
34837;DHT22;21053;50.848;4.652;2023-07-29T07:15:48;20.90;99.90
34837;DHT22;21053;50.848;4.652;2023-07-29T07:18:16;21.00;99.90
34837;DHT22;21053;50.848;4.652;2023-07-29T07:20:48;20.90;99.90
34837;DHT22;21053;50.848;4.652;2023-07-29T07:23:14;20.80;99.90
34837;DHT22;21053;50.848;4.652;2023-07-29T07:25:44;20.90;99.90
34837;DHT22;21053;50.848;4.652;2023-07-29T07:28:11;20.90;99.90
34837;DHT22;21053;50.848;4.652;2023-07-29T07:30:41;21.00;99.90
34837;DHT22;21053;50.848;4.652;2023-07-29T07:33:22;20.90;99.90
34837;DHT22;21053;50.848;4.652;2023-07-29T07:35:48;21.00;99.90
34837;DHT22;21053;50.848;4.652;2023-07-29T07:38:16;21.00;99.90
34837;DHT22;21053;50.848;4.652;2023-07-29T07:40:54;21.10;99.90
34837;DHT22;21053;50.848;4.652;2023-07-29T07:43:21;21.20;99.90
34837;DHT22;21053;50.848;4.652;2023-07-29T07:45:47;21.30;99.90
34837;DHT22;21053;50.848;4.652;2023-07-29T07:48:15;21.20;99.90
34837;DHT22;21053;50.848;4.652;2023-07-29T07:50:45;21.30;99.90
34837;DHT22;21053;50.848;4.652;2023-07-29T07:53:13;21.20;99.90
34837;DHT22;21053;50.848;4.652;2023-07-29T07:55:42;21.00;99.90
34837;DHT22;21053;50.848;4.652;2023-07-29T07:58:18;21.10;99.90
34837;DHT22;21053;50.848;4.652;2023-07-29T08:00:44;21.10;99.90
34837;DHT22;21053;50.848;4.652;2023-07-29T08:03:09;21.10;99.90
34837;DHT22;21053;50.848;4.652;2023-07-29T08:05:38;21.20;99.90
34837;DHT22;21053;50.848;4.652;2023-07-29T08:08:05;21.30;99.90
34837;DHT22;21053;50.848;4.652;2023-07-29T08:10:34;21.50;99.90
34837;DHT22;21053;50.848;4.652;2023-07-29T08:13:05;21.50;99.90
34837;DHT22;21053;50.848;4.652;2023-07-29T08:15:34;21.60;99.90
34837;DHT22;21053;50.848;4.652;2023-07-29T08:18:00;21.80;99.90
34837;DHT22;21053;50.848;4.652;2023-07-29T08:20:29;21.80;99.90
34837;DHT22;21053;50.848;4.652;2023-07-29T08:22:54;21.80;99.90
34837;DHT22;21053;50.848;4.652;2023-07-29T08:25:22;21.90;99.90
34837;DHT22;21053;50.848;4.652;2023-07-29T08:27:51;21.90;99.90
34837;DHT22;21053;50.848;4.652;2023-07-29T08:30:17;21.90;99.90
34837;DHT22;21053;50.848;4.652;2023-07-29T08:32:45;21.90;99.90
34837;DHT22;21053;50.848;4.652;2023-07-29T08:35:11;22.10;99.90
34837;DHT22;21053;50.848;4.652;2023-07-29T08:37:38;22.40;99.90
34837;DHT22;21053;50.848;4.652;2023-07-29T08:40:05;22.50;99.90
34837;DHT22;21053;50.848;4.652;2023-07-29T08:42:32;22.50;99.90
34837;DHT22;21053;50.848;4.652;2023-07-29T08:45:06;22.50;99.90
34837;DHT22;21053;50.848;4.652;2023-07-29T08:47:33;22.50;99.90
34837;DHT22;21053;50.848;4.652;2023-07-29T08:50:01;22.40;99.90
34837;DHT22;21053;50.848;4.652;2023-07-29T08:52:27;22.50;99.90
34837;DHT22;21053;50.848;4.652;2023-07-29T08:54:55;22.50;99.90
34837;DHT22;21053;50.848;4.652;2023-07-29T08:57:24;22.60;99.90
34837;DHT22;21053;50.848;4.652;2023-07-29T08:59:53;23.00;99.90
34837;DHT22;21053;50.848;4.652;2023-07-29T09:02:22;23.00;99.90
34837;DHT22;21053;50.848;4.652;2023-07-29T09:04:52;23.30;99.90
34837;DHT22;21053;50.848;4.652;2023-07-29T09:07:20;23.40;99.90
34837;DHT22;21053;50.848;4.652;2023-07-29T09:10:03;23.40;99.90
34837;DHT22;21053;50.848;4.652;2023-07-29T09:12:29;23.70;99.90
34837;DHT22;21053;50.848;4.652;2023-07-29T09:14:56;24.10;99.90
34837;DHT22;21053;50.848;4.652;2023-07-29T09:17:22;24.50;99.90
34837;DHT22;21053;50.848;4.652;2023-07-29T09:19:51;24.60;99.90
34837;DHT22;21053;50.848;4.652;2023-07-29T09:22:20;24.90;99.90
34837;DHT22;21053;50.848;4.652;2023-07-29T09:24:48;25.30;99.90
34837;DHT22;21053;50.848;4.652;2023-07-29T09:27:24;25.40;99.90
34837;DHT22;21053;50.848;4.652;2023-07-29T09:29:52;25.10;99.70
34837;DHT22;21053;50.848;4.652;2023-07-29T09:32:22;24.90;99.10
34837;DHT22;21053;50.848;4.652;2023-07-29T09:34:51;24.50;99.30
34837;DHT22;21053;50.848;4.652;2023-07-29T09:37:21;24.60;99.90
34837;DHT22;21053;50.848;4.652;2023-07-29T09:39:49;24.50;99.90
34837;DHT22;21053;50.848;4.652;2023-07-29T09:42:20;24.50;99.90
34837;DHT22;21053;50.848;4.652;2023-07-29T09:44:47;24.40;99.90
34837;DHT22;21053;50.848;4.652;2023-07-29T09:47:25;24.30;99.90
34837;DHT22;21053;50.848;4.652;2023-07-29T09:49:53;24.10;99.90
34837;DHT22;21053;50.848;4.652;2023-07-29T09:52:22;24.10;99.90
34837;DHT22;21053;50.848;4.652;2023-07-29T09:54:51;24.10;99.90
34837;DHT22;21053;50.848;4.652;2023-07-29T09:57:18;24.20;99.90
34837;DHT22;21053;50.848;4.652;2023-07-29T10:03:06;24.40;99.90
34837;DHT22;21053;50.848;4.652;2023-07-29T10:05:33;24.90;99.90
34837;DHT22;21053;50.848;4.652;2023-07-29T10:08:06;25.10;99.90
34837;DHT22;21053;50.848;4.652;2023-07-29T10:10:38;25.30;98.70
34837;DHT22;21053;50.848;4.652;2023-07-29T10:13:05;25.60;99.90
34837;DHT22;21053;50.848;4.652;2023-07-29T10:15:33;25.70;99.60
34837;DHT22;21053;50.848;4.652;2023-07-29T10:18:02;25.40;97.90
34837;DHT22;21053;50.848;4.652;2023-07-29T10:20:31;25.00;99.50
34837;DHT22;21053;50.848;4.652;2023-07-29T10:23:00;24.60;98.50
34837;DHT22;21053;50.848;4.652;2023-07-29T10:25:39;24.10;99.90
34837;DHT22;21053;50.848;4.652;2023-07-29T10:28:12;23.90;99.90
34837;DHT22;21053;50.848;4.652;2023-07-29T10:30:41;23.50;99.90
34837;DHT22;21053;50.848;4.652;2023-07-29T10:33:14;23.50;99.90
34837;DHT22;21053;50.848;4.652;2023-07-29T10:35:43;23.30;99.90
34837;DHT22;21053;50.848;4.652;2023-07-29T10:38:12;23.30;99.90
34837;DHT22;21053;50.848;4.652;2023-07-29T10:40:53;23.10;99.90
34837;DHT22;21053;50.848;4.652;2023-07-29T10:43:50;22.80;99.90
34837;DHT22;21053;50.848;4.652;2023-07-29T10:46:23;22.50;99.90
34837;DHT22;21053;50.848;4.652;2023-07-29T10:48:58;22.50;99.90
34837;DHT22;21053;50.848;4.652;2023-07-29T10:51:29;22.30;99.90
34837;DHT22;21053;50.848;4.652;2023-07-29T10:53:56;22.20;99.90
34837;DHT22;21053;50.848;4.652;2023-07-29T10:56:33;22.30;99.90
34837;DHT22;21053;50.848;4.652;2023-07-29T11:01:54;22.60;99.90
34837;DHT22;21053;50.848;4.652;2023-07-29T11:09:42;23.20;99.90
34837;DHT22;21053;50.848;4.652;2023-07-29T11:17:47;22.70;99.90
34837;DHT22;21053;50.848;4.652;2023-07-29T11:20:18;22.50;99.90
34837;DHT22;21053;50.848;4.652;2023-07-29T11:22:44;22.40;99.90
34837;DHT22;21053;50.848;4.652;2023-07-29T11:25:12;22.60;99.90
34837;DHT22;21053;50.848;4.652;2023-07-29T11:27:40;22.60;99.90
34837;DHT22;21053;50.848;4.652;2023-07-29T11:30:10;22.90;99.90
34837;DHT22;21053;50.848;4.652;2023-07-29T11:32:37;22.80;99.90
34837;DHT22;21053;50.848;4.652;2023-07-29T11:35:05;22.50;99.90
34837;DHT22;21053;50.848;4.652;2023-07-29T11:37:33;22.50;99.90
34837;DHT22;21053;50.848;4.652;2023-07-29T11:39:59;22.60;99.90
34837;DHT22;21053;50.848;4.652;2023-07-29T11:42:26;22.50;99.90
34837;DHT22;21053;50.848;4.652;2023-07-29T11:47:22;22.20;99.90
34837;DHT22;21053;50.848;4.652;2023-07-29T11:49:47;22.40;99.90
34837;DHT22;21053;50.848;4.652;2023-07-29T11:52:25;22.70;99.90
34837;DHT22;21053;50.848;4.652;2023-07-29T11:54:53;22.80;99.90
34837;DHT22;21053;50.848;4.652;2023-07-29T11:57:22;22.70;99.90
34837;DHT22;21053;50.848;4.652;2023-07-29T11:59:51;22.50;99.90
34837;DHT22;21053;50.848;4.652;2023-07-29T12:02:19;22.70;99.90
34837;DHT22;21053;50.848;4.652;2023-07-29T12:04:47;23.20;99.90
34837;DHT22;21053;50.848;4.652;2023-07-29T12:07:17;23.60;99.90
34837;DHT22;21053;50.848;4.652;2023-07-29T12:09:44;24.00;99.90
34837;DHT22;21053;50.848;4.652;2023-07-29T12:12:13;24.40;99.90
34837;DHT22;21053;50.848;4.652;2023-07-29T12:14:46;24.70;99.90
34837;DHT22;21053;50.848;4.652;2023-07-29T12:17:15;24.80;99.90
34837;DHT22;21053;50.848;4.652;2023-07-29T12:19:42;24.40;99.90
34837;DHT22;21053;50.848;4.652;2023-07-29T12:22:10;24.00;99.90
34837;DHT22;21053;50.848;4.652;2023-07-29T12:24:40;23.60;99.90
34837;DHT22;21053;50.848;4.652;2023-07-29T12:27:14;23.60;99.90
34837;DHT22;21053;50.848;4.652;2023-07-29T12:29:44;23.50;99.90
34837;DHT22;21053;50.848;4.652;2023-07-29T12:32:13;23.70;99.90
34837;DHT22;21053;50.848;4.652;2023-07-29T12:34:40;23.80;99.90
34837;DHT22;21053;50.848;4.652;2023-07-29T12:37:07;23.70;99.90
34837;DHT22;21053;50.848;4.652;2023-07-29T12:39:41;23.70;99.90
34837;DHT22;21053;50.848;4.652;2023-07-29T12:42:09;23.70;99.90
34837;DHT22;21053;50.848;4.652;2023-07-29T12:44:36;23.20;99.90
34837;DHT22;21053;50.848;4.652;2023-07-29T12:47:04;22.80;99.90
34837;DHT22;21053;50.848;4.652;2023-07-29T12:49:44;22.50;99.90
34837;DHT22;21053;50.848;4.652;2023-07-29T12:52:10;22.20;99.90
34837;DHT22;21053;50.848;4.652;2023-07-29T12:54:39;21.80;99.90
34837;DHT22;21053;50.848;4.652;2023-07-29T12:57:07;21.60;99.90
34837;DHT22;21053;50.848;4.652;2023-07-29T12:59:39;21.70;99.90
34837;DHT22;21053;50.848;4.652;2023-07-29T13:03:02;21.80;99.90
34837;DHT22;21053;50.848;4.652;2023-07-29T13:09:33;21.90;99.90
34837;DHT22;21053;50.848;4.652;2023-07-29T13:15:23;23.10;99.90
34837;DHT22;21053;50.848;4.652;2023-07-29T14:45:32;24.80;99.90
34837;DHT22;21053;50.848;4.652;2023-07-29T14:48:01;25.10;99.90
34837;DHT22;21053;50.848;4.652;2023-07-29T14:50:45;25.10;99.90
34837;DHT22;21053;50.848;4.652;2023-07-29T15:56:35;24.80;99.90
34837;DHT22;21053;50.848;4.652;2023-07-29T15:59:09;24.40;99.90
34837;DHT22;21053;50.848;4.652;2023-07-29T16:01:36;24.30;99.90
34837;DHT22;21053;50.848;4.652;2023-07-29T16:04:15;24.30;99.90
34837;DHT22;21053;50.848;4.652;2023-07-29T16:10:06;24.50;99.90
34837;DHT22;21053;50.848;4.652;2023-07-29T16:12:35;24.30;99.90
34837;DHT22;21053;50.848;4.652;2023-07-29T16:15:26;24.40;99.90
34837;DHT22;21053;50.848;4.652;2023-07-29T16:18:28;24.20;99.90
34837;DHT22;21053;50.848;4.652;2023-07-29T16:21:12;24.20;99.90
34837;DHT22;21053;50.848;4.652;2023-07-29T16:23:41;24.30;99.90
34837;DHT22;21053;50.848;4.652;2023-07-29T16:39:20;23.90;99.90
34837;DHT22;21053;50.848;4.652;2023-07-29T16:42:25;23.90;99.90
34837;DHT22;21053;50.848;4.652;2023-07-29T16:45:20;24.00;99.90
34837;DHT22;21053;50.848;4.652;2023-07-29T16:51:05;23.70;99.90
34837;DHT22;21053;50.848;4.652;2023-07-29T16:56:58;23.80;99.90
34837;DHT22;21053;50.848;4.652;2023-07-29T16:59:27;23.80;99.90
34837;DHT22;21053;50.848;4.652;2023-07-29T17:02:06;23.50;99.90
34837;DHT22;21053;50.848;4.652;2023-07-29T17:12:48;23.10;99.90
34837;DHT22;21053;50.848;4.652;2023-07-29T17:15:19;23.10;99.90
34837;DHT22;21053;50.848;4.652;2023-07-29T17:17:46;23.10;99.90
34837;DHT22;21053;50.848;4.652;2023-07-29T17:20:20;23.10;99.90
34837;DHT22;21053;50.848;4.652;2023-07-29T17:22:57;23.30;99.90
34837;DHT22;21053;50.848;4.652;2023-07-29T17:25:25;23.30;99.90
34837;DHT22;21053;50.848;4.652;2023-07-29T17:27:52;23.30;99.90
34837;DHT22;21053;50.848;4.652;2023-07-29T17:30:26;23.40;99.90
34837;DHT22;21053;50.848;4.652;2023-07-29T17:33:18;23.60;99.90
34837;DHT22;21053;50.848;4.652;2023-07-29T17:36:08;23.60;99.90
34837;DHT22;21053;50.848;4.652;2023-07-29T17:38:35;23.60;99.90
34837;DHT22;21053;50.848;4.652;2023-07-29T17:41:03;23.60;99.90
34837;DHT22;21053;50.848;4.652;2023-07-29T17:43:29;23.50;99.90
34837;DHT22;21053;50.848;4.652;2023-07-29T17:45:56;23.30;99.70
34837;DHT22;21053;50.848;4.652;2023-07-29T17:48:24;23.10;99.90
34837;DHT22;21053;50.848;4.652;2023-07-29T17:50:50;23.00;99.90
34837;DHT22;21053;50.848;4.652;2023-07-29T17:53:16;23.10;99.90
34837;DHT22;21053;50.848;4.652;2023-07-29T17:55:42;23.10;99.90
34837;DHT22;21053;50.848;4.652;2023-07-29T17:58:08;22.90;99.90
34837;DHT22;21053;50.848;4.652;2023-07-29T18:00:34;23.00;99.90
34837;DHT22;21053;50.848;4.652;2023-07-29T18:03:04;22.80;99.90
34837;DHT22;21053;50.848;4.652;2023-07-29T18:05:34;22.60;99.90
34837;DHT22;21053;50.848;4.652;2023-07-29T18:08:16;22.80;99.90
34837;DHT22;21053;50.848;4.652;2023-07-29T18:14:05;22.50;99.90
34837;DHT22;21053;50.848;4.652;2023-07-29T18:17:01;22.60;99.90
34837;DHT22;21053;50.848;4.652;2023-07-29T18:21:59;22.70;99.90
34837;DHT22;21053;50.848;4.652;2023-07-29T18:24:25;22.60;99.90
34837;DHT22;21053;50.848;4.652;2023-07-29T18:29:23;22.70;99.90
34837;DHT22;21053;50.848;4.652;2023-07-29T18:31:51;22.70;99.90
34837;DHT22;21053;50.848;4.652;2023-07-29T18:34:25;22.50;99.90
34837;DHT22;21053;50.848;4.652;2023-07-29T18:36:52;22.50;99.90
34837;DHT22;21053;50.848;4.652;2023-07-29T18:39:26;22.50;99.90
34837;DHT22;21053;50.848;4.652;2023-07-29T18:41:54;22.40;99.70
34837;DHT22;21053;50.848;4.652;2023-07-29T18:44:20;22.30;99.90
34837;DHT22;21053;50.848;4.652;2023-07-29T18:46:46;22.20;99.90
34837;DHT22;21053;50.848;4.652;2023-07-29T18:49:17;22.30;99.80
34837;DHT22;21053;50.848;4.652;2023-07-29T18:51:46;22.30;99.90
34837;DHT22;21053;50.848;4.652;2023-07-29T18:54:12;22.30;99.90
34837;DHT22;21053;50.848;4.652;2023-07-29T18:56:39;22.30;99.90
34837;DHT22;21053;50.848;4.652;2023-07-29T18:59:12;22.20;99.90
34837;DHT22;21053;50.848;4.652;2023-07-29T19:01:39;22.20;99.90
34837;DHT22;21053;50.848;4.652;2023-07-29T19:04:07;22.10;99.90
34837;DHT22;21053;50.848;4.652;2023-07-29T19:06:35;22.10;99.90
34837;DHT22;21053;50.848;4.652;2023-07-29T19:09:04;22.00;99.90
34837;DHT22;21053;50.848;4.652;2023-07-29T19:11:30;21.90;99.90
34837;DHT22;21053;50.848;4.652;2023-07-29T19:13:56;21.80;99.90
34837;DHT22;21053;50.848;4.652;2023-07-29T19:16:23;21.80;99.90
34837;DHT22;21053;50.848;4.652;2023-07-29T19:18:49;21.70;99.90
34837;DHT22;21053;50.848;4.652;2023-07-29T19:21:18;21.70;99.90
34837;DHT22;21053;50.848;4.652;2023-07-29T19:23:49;21.70;99.90
34837;DHT22;21053;50.848;4.652;2023-07-29T19:26:16;21.70;99.90
34837;DHT22;21053;50.848;4.652;2023-07-29T19:28:47;21.60;99.90
34837;DHT22;21053;50.848;4.652;2023-07-29T19:31:16;21.60;99.90
34837;DHT22;21053;50.848;4.652;2023-07-29T19:33:42;21.60;99.90
34837;DHT22;21053;50.848;4.652;2023-07-29T19:36:09;21.60;99.90
34837;DHT22;21053;50.848;4.652;2023-07-29T19:38:39;21.50;99.70
34837;DHT22;21053;50.848;4.652;2023-07-29T19:41:08;21.50;99.90
34837;DHT22;21053;50.848;4.652;2023-07-29T19:43:33;21.40;99.90